Time;durP1;ratioP1;P1;durP2;ratioP2;P2;SDS_P1;SDS_P2;PMS_P1;PMS_P2;Temp;Humidity;BMP_temperature;BMP_pressure;BME280_temperature;BME280_humidity;BME280_pressure;Samples;Min_cycle;Max_cycle;Signal;HPM_P1;HPM_P2
2023/09/20 00:01:47;;;;;;;7.00;2.60;;;17.10;99.90;;;;;;6189091;23;20060;-68
2023/09/20 00:04:14;;;;;;;11.77;2.47;;;17.20;99.90;;;;;;6189172;23;20025;-69
2023/09/20 00:06:40;;;;;;;6.80;2.70;;;17.20;99.90;;;;;;6188771;23;20036;-68
2023/09/20 00:09:08;;;;;;;5.30;2.75;;;17.20;99.90;;;;;;6188630;23;20077;-69
2023/09/20 00:11:35;;;;;;;9.50;3.33;;;17.20;99.90;;;;;;6163602;23;20092;-68
2023/09/20 00:14:01;;;;;;;6.60;2.80;;;17.20;99.90;;;;;;6161061;23;20033;-69
2023/09/20 00:16:28;;;;;;;9.50;2.90;;;17.20;99.90;;;;;;6189592;23;20024;-69
2023/09/20 00:18:54;;;;;;;6.22;2.50;;;17.20;99.90;;;;;;6188851;23;20039;-68
2023/09/20 00:21:20;;;;;;;10.27;3.15;;;17.20;99.90;;;;;;6162082;23;20498;-68
2023/09/20 00:23:46;;;;;;;5.93;2.50;;;17.20;99.90;;;;;;6189671;23;20043;-69
2023/09/20 00:26:13;;;;;;;10.10;2.65;;;17.20;99.90;;;;;;6187774;23;20043;-69
2023/09/20 00:28:42;;;;;;;7.15;2.63;;;17.20;99.90;;;;;;6189938;23;20020;-69
2023/09/20 00:31:09;;;;;;;7.95;2.72;;;17.20;99.90;;;;;;6187509;23;20032;-69
2023/09/20 00:33:34;;;;;;;11.50;2.80;;;17.20;99.90;;;;;;6189565;23;20091;-68
2023/09/20 00:36:00;;;;;;;9.15;3.08;;;17.20;99.90;;;;;;6188624;23;20019;-68
2023/09/20 00:38:26;;;;;;;6.00;2.42;;;17.20;99.90;;;;;;6188872;23;20021;-68
2023/09/20 00:40:52;;;;;;;10.20;2.83;;;17.20;99.90;;;;;;6189156;23;20071;-68
2023/09/20 00:43:24;;;;;;;8.73;2.60;;;17.20;99.90;;;;;;6188037;23;20021;-68
2023/09/20 00:45:50;;;;;;;6.95;2.63;;;17.20;99.90;;;;;;6162874;23;20025;-68
2023/09/20 00:48:18;;;;;;;10.73;2.85;;;17.20;99.90;;;;;;6187749;23;20021;-68
2023/09/20 00:50:44;;;;;;;8.77;3.00;;;17.20;99.90;;;;;;6189572;23;20040;-68
2023/09/20 00:53:13;;;;;;;9.82;2.67;;;17.20;99.90;;;;;;6188664;23;20339;-68
2023/09/20 00:55:42;;;;;;;7.75;2.33;;;17.20;99.90;;;;;;6161254;23;20032;-68
2023/09/20 00:58:12;;;;;;;11.60;2.63;;;17.30;99.90;;;;;;6162595;23;20029;-68
2023/09/20 01:00:40;;;;;;;10.13;2.17;;;17.20;99.90;;;;;;6187570;23;20021;-68
2023/09/20 01:03:06;;;;;;;10.07;2.92;;;17.20;99.90;;;;;;6189574;23;20151;-68
2023/09/20 01:05:37;;;;;;;5.47;2.42;;;17.30;99.90;;;;;;6187169;23;20051;-68
2023/09/20 01:08:04;;;;;;;6.00;2.30;;;17.30;99.90;;;;;;6162370;23;20021;-71
2023/09/20 01:10:36;;;;;;;9.57;2.85;;;17.30;99.90;;;;;;6188935;23;20024;-68
2023/09/20 01:13:04;;;;;;;10.00;2.50;;;17.30;99.90;;;;;;6161783;23;20052;-68
2023/09/20 01:15:32;;;;;;;4.72;2.60;;;17.30;99.90;;;;;;6189488;23;20061;-68
2023/09/20 01:17:59;;;;;;;8.95;2.45;;;17.30;99.90;;;;;;6187813;23;20029;-68
2023/09/20 01:20:26;;;;;;;9.65;2.60;;;17.30;99.90;;;;;;6163424;23;20029;-68
2023/09/20 01:22:56;;;;;;;9.35;2.20;;;17.30;99.90;;;;;;6187904;23;20115;-67
2023/09/20 01:25:35;;;;;;;9.00;3.05;;;17.30;99.90;;;;;;6189115;23;20032;-68
2023/09/20 01:28:03;;;;;;;5.43;2.50;;;17.30;99.90;;;;;;6189337;23;20132;-68
2023/09/20 01:30:33;;;;;;;5.28;2.28;;;17.40;99.90;;;;;;6187955;23;20035;-68
2023/09/20 01:33:03;;;;;;;7.88;2.45;;;17.40;99.90;;;;;;6189952;23;20028;-70
2023/09/20 01:35:30;;;;;;;7.50;2.40;;;17.30;99.90;;;;;;6188081;23;20028;-70
2023/09/20 01:37:57;;;;;;;9.05;2.13;;;17.40;99.90;;;;;;6189768;23;20020;-67
2023/09/20 01:40:25;;;;;;;9.23;2.85;;;17.40;99.90;;;;;;6187689;23;20084;-68
2023/09/20 01:42:52;;;;;;;9.35;2.67;;;17.30;99.90;;;;;;6188608;23;20115;-69
2023/09/20 01:45:20;;;;;;;9.18;2.20;;;17.30;99.90;;;;;;6188697;23;20024;-68
2023/09/20 01:47:50;;;;;;;11.45;2.65;;;17.30;99.90;;;;;;6187902;23;20020;-68
2023/09/20 01:50:19;;;;;;;6.47;2.63;;;17.30;99.90;;;;;;6189726;23;20036;-68
2023/09/20 01:52:49;;;;;;;8.45;2.60;;;17.40;99.90;;;;;;6187741;23;20028;-68
2023/09/20 01:55:22;;;;;;;7.32;2.00;;;17.40;99.90;;;;;;6189068;23;20045;-68
2023/09/20 01:57:49;;;;;;;6.88;2.22;;;17.40;99.90;;;;;;6188660;23;20021;-68
2023/09/20 02:00:25;;;;;;;11.50;3.05;;;17.40;99.90;;;;;;6188082;23;20037;-68
2023/09/20 02:02:54;;;;;;;10.68;2.40;;;17.30;99.90;;;;;;6189476;23;20430;-68
2023/09/20 02:05:21;;;;;;;7.38;2.50;;;17.30;99.90;;;;;;6187265;23;20021;-68
2023/09/20 02:07:48;;;;;;;5.20;2.60;;;17.30;99.90;;;;;;6189643;23;20077;-68
2023/09/20 02:10:17;;;;;;;10.32;2.53;;;17.40;99.90;;;;;;6187980;23;20081;-68
2023/09/20 02:12:54;;;;;;;7.30;2.20;;;17.30;99.90;;;;;;6162134;23;20025;-68
2023/09/20 02:15:21;;;;;;;9.32;2.33;;;17.30;99.90;;;;;;6189073;23;20013;-69
2023/09/20 02:17:47;;;;;;;8.07;2.30;;;17.30;99.90;;;;;;6186628;23;20055;-68
2023/09/20 02:20:19;;;;;;;10.32;2.35;;;17.30;99.90;;;;;;6188980;23;20076;-68
2023/09/20 02:22:48;;;;;;;5.85;2.28;;;17.30;99.90;;;;;;6187366;23;20128;-68
2023/09/20 02:25:20;;;;;;;4.68;2.00;;;17.30;99.90;;;;;;6188693;23;20025;-68
2023/09/20 02:27:50;;;;;;;10.32;2.63;;;17.30;99.90;;;;;;6188591;23;20069;-67
2023/09/20 02:30:19;;;;;;;9.38;2.25;;;17.30;99.90;;;;;;6185747;23;20139;-68
2023/09/20 02:32:50;;;;;;;7.45;2.60;;;17.30;99.90;;;;;;6187181;23;20021;-67
2023/09/20 02:35:16;;;;;;;6.70;2.15;;;17.30;99.90;;;;;;6186360;23;20035;-68
2023/09/20 02:37:43;;;;;;;7.20;2.20;;;17.30;99.90;;;;;;6189368;23;20071;-70
2023/09/20 02:40:19;;;;;;;6.43;2.13;;;17.30;99.90;;;;;;6187043;23;20021;-68
2023/09/20 02:42:58;;;;;;;6.35;2.30;;;17.40;99.90;;;;;;6187723;23;20025;-70
2023/09/20 02:45:25;;;;;;;7.32;2.20;;;17.30;99.90;;;;;;6188571;23;20051;-69
2023/09/20 02:47:52;;;;;;;7.07;2.47;;;17.40;99.90;;;;;;6187489;23;20035;-68
2023/09/20 02:50:23;;;;;;;6.30;2.38;;;17.40;99.90;;;;;;6162362;23;20022;-68
2023/09/20 02:52:49;;;;;;;13.40;3.53;;;17.40;99.90;;;;;;6187637;23;20772;-68
2023/09/20 02:55:17;;;;;;;5.75;2.58;;;17.40;99.90;;;;;;6188770;23;20021;-69
2023/09/20 02:57:44;;;;;;;7.18;2.63;;;17.40;99.90;;;;;;6161631;23;20053;-68
2023/09/20 03:00:15;;;;;;;11.05;3.20;;;17.30;99.90;;;;;;6187729;23;20743;-68
2023/09/20 03:03:00;;;;;;;7.05;2.13;;;17.30;99.90;;;;;;6162741;23;20063;-68
2023/09/20 03:05:34;;;;;;;9.88;2.80;;;17.40;99.90;;;;;;6187750;23;20434;-68
2023/09/20 03:08:11;;;;;;;8.98;1.98;;;17.40;99.90;;;;;;6190490;23;20087;-68
2023/09/20 03:10:44;;;;;;;8.80;2.67;;;17.30;99.90;;;;;;6163655;23;20446;-68
2023/09/20 03:13:16;;;;;;;9.40;2.55;;;17.30;99.90;;;;;;6139481;23;20025;-68
2023/09/20 03:15:45;;;;;;;;;;;17.30;99.90;;;;;;6192159;23;20028;-70
2023/09/20 03:18:13;;;;;;;10.90;2.60;;;17.30;99.90;;;;;;6188702;23;19945;-70
2023/09/20 03:20:43;;;;;;;9.13;3.15;;;17.30;99.90;;;;;;6191234;23;20021;-68
2023/09/20 03:23:10;;;;;;;6.18;2.22;;;17.30;99.90;;;;;;6189009;23;20029;-68
2023/09/20 03:25:36;;;;;;;7.45;2.42;;;17.30;99.90;;;;;;6189760;23;20021;-68
2023/09/20 03:28:12;;;;;;;5.20;2.85;;;17.40;99.90;;;;;;6164136;23;20024;-68
2023/09/20 03:30:39;;;;;;;8.50;2.92;;;17.30;99.90;;;;;;6162554;23;20021;-68
2023/09/20 03:33:06;;;;;;;7.40;2.50;;;17.40;99.90;;;;;;6191046;23;20025;-68
2023/09/20 03:35:33;;;;;;;10.48;2.50;;;17.30;99.90;;;;;;6188679;23;20017;-68
2023/09/20 03:37:59;;;;;;;6.63;2.55;;;17.30;99.90;;;;;;6190961;23;20025;-68
2023/09/20 03:40:28;;;;;;;7.70;2.75;;;17.30;99.90;;;;;;6189908;23;20069;-68
2023/09/20 03:42:54;;;;;;;6.30;2.30;;;17.30;99.90;;;;;;6189951;23;20036;-68
2023/09/20 03:45:20;;;;;;;10.10;2.58;;;17.30;99.90;;;;;;6190787;23;20027;-68
2023/09/20 03:47:49;;;;;;;9.88;2.58;;;17.20;99.90;;;;;;6162930;23;20021;-68
2023/09/20 03:50:19;;;;;;;6.97;2.40;;;17.20;99.90;;;;;;6191347;23;20021;-68
2023/09/20 03:52:48;;;;;;;;;;;17.20;99.90;;;;;;6164517;23;20032;-67
2023/09/20 03:55:13;;;;;;;7.93;2.42;;;17.10;99.90;;;;;;6190595;23;19916;-68
2023/09/20 03:57:39;;;;;;;8.35;2.35;;;17.10;99.90;;;;;;6190293;23;20517;-68
2023/09/20 04:00:18;;;;;;;6.38;2.03;;;17.10;99.90;;;;;;6163241;23;20025;-68
2023/09/20 04:02:48;;;;;;;4.95;2.30;;;17.00;99.90;;;;;;6191049;23;20025;-68
2023/09/20 04:05:15;;;;;;;5.35;2.58;;;17.00;99.90;;;;;;6188880;23;20020;-68
2023/09/20 04:07:44;;;;;;;10.20;2.72;;;17.00;99.90;;;;;;6191089;23;20491;-68
2023/09/20 04:10:11;;;;;;;8.77;2.78;;;16.90;99.90;;;;;;6161881;23;20347;-68
2023/09/20 04:12:36;;;;;;;5.03;2.55;;;16.90;99.90;;;;;;6190391;23;20021;-68
2023/09/20 04:15:07;;;;;;;7.65;2.53;;;16.90;99.90;;;;;;6190635;23;20533;-68
2023/09/20 04:17:35;;;;;;;8.02;2.40;;;16.80;99.90;;;;;;6188513;23;20027;-68
2023/09/20 04:20:12;;;;;;;7.75;2.67;;;16.80;99.90;;;;;;6190284;23;20049;-68
2023/09/20 04:22:40;;;;;;;8.75;2.55;;;16.80;99.90;;;;;;6186624;23;20328;-68
2023/09/20 04:25:07;;;;;;;5.55;2.45;;;16.70;99.90;;;;;;6163750;23;20128;-68
2023/09/20 04:27:32;;;;;;;7.68;2.60;;;16.70;99.90;;;;;;6163044;23;20024;-68
2023/09/20 04:30:01;;;;;;;6.88;2.40;;;16.70;99.90;;;;;;6189122;23;20158;-68
2023/09/20 04:32:27;;;;;;;6.45;2.85;;;16.70;99.90;;;;;;6190083;23;20022;-68
2023/09/20 04:34:53;;;;;;;7.30;2.40;;;16.60;99.90;;;;;;6188423;23;20052;-68
2023/09/20 04:37:22;;;;;;;5.05;2.50;;;16.60;99.90;;;;;;6163428;23;20073;-68
2023/09/20 04:39:49;;;;;;;6.95;2.67;;;16.60;99.90;;;;;;6188034;23;20328;-68
2023/09/20 04:42:15;;;;;;;6.90;2.63;;;16.50;99.90;;;;;;6189714;23;20009;-68
2023/09/20 04:44:41;;;;;;;6.18;2.58;;;16.50;99.90;;;;;;6162222;23;20067;-69
2023/09/20 04:47:07;;;;;;;7.13;2.45;;;16.50;99.90;;;;;;6188138;23;20542;-68
2023/09/20 04:49:33;;;;;;;10.90;3.10;;;16.50;99.90;;;;;;6188976;23;20659;-68
2023/09/20 04:52:04;;;;;;;7.35;3.00;;;16.40;99.90;;;;;;6187518;23;20037;-68
2023/09/20 04:54:30;;;;;;;7.03;3.03;;;16.50;99.90;;;;;;6189676;23;20025;-68
2023/09/20 04:56:56;;;;;;;9.20;2.80;;;16.40;99.90;;;;;;6187928;23;20017;-68
2023/09/20 04:59:22;;;;;;;6.47;2.30;;;16.40;99.90;;;;;;6189511;23;20020;-68
2023/09/20 05:01:49;;;;;;;7.57;2.80;;;16.40;99.90;;;;;;6188846;23;20060;-69
2023/09/20 05:04:18;;;;;;;8.20;2.70;;;16.40;99.90;;;;;;6188491;23;20099;-68
2023/09/20 05:06:45;;;;;;;6.07;2.30;;;16.30;99.90;;;;;;6188781;23;20021;-68
2023/09/20 05:09:12;;;;;;;5.05;2.53;;;16.30;99.90;;;;;;6187895;23;20029;-68
2023/09/20 05:11:39;;;;;;;5.85;2.67;;;16.30;99.90;;;;;;6163281;23;20045;-67
2023/09/20 05:14:05;;;;;;;5.93;2.53;;;16.30;99.90;;;;;;6161173;23;20076;-68
2023/09/20 05:16:31;;;;;;;7.25;2.58;;;16.30;99.90;;;;;;6189121;23;20025;-68
2023/09/20 05:18:57;;;;;;;6.43;2.70;;;16.30;99.90;;;;;;6161996;23;20105;-68
2023/09/20 05:21:23;;;;;;;6.22;2.83;;;16.30;99.90;;;;;;6187829;23;20031;-68
2023/09/20 05:23:49;;;;;;;3.60;2.30;;;16.30;99.90;;;;;;6162330;23;20025;-68
2023/09/20 05:26:14;;;;;;;7.72;2.63;;;16.20;99.90;;;;;;6187474;23;20021;-68
2023/09/20 05:28:40;;;;;;;8.63;2.80;;;16.20;99.90;;;;;;6189192;23;20025;-68
2023/09/20 05:31:06;;;;;;;6.70;2.30;;;16.20;99.90;;;;;;6187697;23;20024;-68
2023/09/20 05:33:35;;;;;;;5.55;2.53;;;16.20;99.90;;;;;;6189064;23;20069;-69
2023/09/20 05:36:00;;;;;;;7.35;2.75;;;16.20;99.90;;;;;;6188100;23;20039;-67
2023/09/20 05:38:26;;;;;;;8.88;2.20;;;16.20;99.90;;;;;;6188389;23;20024;-69
2023/09/20 05:40:53;;;;;;;8.95;2.40;;;16.20;99.90;;;;;;6189477;23;20025;-68
2023/09/20 05:43:19;;;;;;;6.80;2.30;;;16.20;99.90;;;;;;6160885;23;20077;-69
2023/09/20 05:45:45;;;;;;;11.90;2.40;;;16.20;99.90;;;;;;6163677;23;20032;-68
2023/09/20 05:48:10;;;;;;;4.13;1.98;;;16.20;99.90;;;;;;6188108;23;20029;-69
2023/09/20 05:50:37;;;;;;;5.13;2.30;;;16.30;99.90;;;;;;6163188;23;20025;-68
2023/09/20 05:53:06;;;;;;;5.53;2.22;;;16.30;99.90;;;;;;6160603;23;20087;-68
2023/09/20 05:55:35;;;;;;;5.80;2.20;;;16.30;99.90;;;;;;6187141;23;20017;-68
2023/09/20 05:58:02;;;;;;;6.53;2.38;;;16.30;99.90;;;;;;6188805;23;20078;-68
2023/09/20 06:00:29;;;;;;;5.07;2.28;;;16.30;99.90;;;;;;6188410;23;20052;-68
2023/09/20 06:02:59;;;;;;;5.40;2.33;;;16.30;99.90;;;;;;6189702;23;20028;-67
2023/09/20 06:05:30;;;;;;;8.60;2.38;;;16.30;99.90;;;;;;6187415;23;20025;-68
2023/09/20 06:07:57;;;;;;;5.20;2.33;;;16.40;99.90;;;;;;6189701;23;20610;-68
2023/09/20 06:10:26;;;;;;;6.47;2.45;;;16.40;99.90;;;;;;6189528;23;20029;-67
2023/09/20 06:12:52;;;;;;;4.70;2.25;;;16.40;99.90;;;;;;6188735;23;20025;-67
2023/09/20 06:15:18;;;;;;;4.28;1.98;;;16.40;99.90;;;;;;6189213;23;20602;-68
2023/09/20 06:17:44;;;;;;;7.47;2.42;;;16.50;99.90;;;;;;6188613;23;20051;-68
2023/09/20 06:20:12;;;;;;;5.22;2.22;;;16.50;99.90;;;;;;6189722;23;20021;-67
2023/09/20 06:22:39;;;;;;;6.18;2.58;;;16.60;99.90;;;;;;6188585;23;20031;-68
2023/09/20 06:25:07;;;;;;;6.65;2.65;;;16.60;99.90;;;;;;6189289;23;20029;-68
2023/09/20 06:27:33;;;;;;;8.43;3.10;;;16.60;99.90;;;;;;6162906;23;20107;-67
2023/09/20 06:30:05;;;;;;;5.03;2.47;;;16.70;99.90;;;;;;6188717;23;20025;-67
2023/09/20 06:32:33;;;;;;;22.77;3.38;;;16.70;99.90;;;;;;6163482;23;20592;-68
2023/09/20 06:35:07;;;;;;;19.98;3.03;;;16.70;99.90;;;;;;6161207;23;20774;-67
2023/09/20 06:37:34;;;;;;;9.57;2.67;;;16.80;99.90;;;;;;6189110;23;20335;-67
2023/09/20 06:40:00;;;;;;;6.75;2.38;;;16.80;99.90;;;;;;6189264;23;20036;-67
2023/09/20 06:42:29;;;;;;;8.63;2.58;;;16.90;99.90;;;;;;6164807;23;20028;-67
2023/09/20 06:44:56;;;;;;;8.25;2.20;;;16.90;99.90;;;;;;6164813;23;20056;-64
2023/09/20 06:47:24;;;;;;;5.95;2.65;;;16.90;99.90;;;;;;6190149;23;20533;-67
2023/09/20 06:49:51;;;;;;;7.72;2.63;;;17.00;99.90;;;;;;6164458;23;20032;-66
2023/09/20 06:52:18;;;;;;;6.72;2.35;;;17.00;99.90;;;;;;6163056;23;20533;-69
2023/09/20 06:54:45;;;;;;;5.25;2.63;;;17.00;99.90;;;;;;6192032;23;20032;-69
2023/09/20 06:57:17;;;;;;;8.77;2.85;;;17.10;99.90;;;;;;6190293;23;20025;-69
2023/09/20 06:59:44;;;;;;;5.88;2.08;;;17.10;99.90;;;;;;6190704;23;20025;-69
2023/09/20 07:02:12;;;;;;;5.78;2.95;;;17.10;99.90;;;;;;6190947;23;20029;-67
2023/09/20 07:04:39;;;;;;;5.95;2.38;;;17.10;99.90;;;;;;6189803;23;20052;-67
2023/09/20 07:07:07;;;;;;;5.20;2.58;;;17.10;99.90;;;;;;6190448;23;20058;-67
2023/09/20 07:09:34;;;;;;;9.82;2.80;;;17.20;99.90;;;;;;6189333;23;20017;-68
2023/09/20 07:12:03;;;;;;;9.98;3.13;;;17.20;99.90;;;;;;6165026;23;20064;-67
2023/09/20 07:14:32;;;;;;;6.13;2.58;;;17.20;99.90;;;;;;6190490;23;20425;-67
2023/09/20 07:17:01;;;;;;;7.15;2.70;;;17.20;99.90;;;;;;6190093;23;20052;-67
2023/09/20 07:19:30;;;;;;;9.07;2.75;;;17.20;99.90;;;;;;6190920;23;20445;-67
2023/09/20 07:21:56;;;;;;;8.10;2.75;;;17.20;99.90;;;;;;6189093;23;20032;-66
2023/09/20 07:24:24;;;;;;;10.45;2.50;;;17.20;99.90;;;;;;6190468;23;20033;-67
2023/09/20 07:26:58;;;;;;;5.03;2.50;;;17.20;99.90;;;;;;6188482;23;20025;-66
2023/09/20 07:29:24;;;;;;;8.63;2.58;;;17.20;99.90;;;;;;6163077;23;20044;-67
2023/09/20 07:31:50;;;;;;;9.57;2.65;;;17.20;99.90;;;;;;6188387;23;20029;-67
2023/09/20 07:34:17;;;;;;;7.82;3.25;;;17.20;99.90;;;;;;6189388;23;20025;-67
2023/09/20 07:36:49;;;;;;;7.70;2.92;;;17.30;99.90;;;;;;6190735;23;20473;-67
2023/09/20 07:39:20;;;;;;;11.07;2.77;;;17.30;99.90;;;;;;6189527;23;20097;-67
2023/09/20 07:41:46;;;;;;;8.38;3.00;;;17.40;99.90;;;;;;6191462;23;20032;-68
2023/09/20 07:44:15;;;;;;;7.63;2.88;;;17.50;99.90;;;;;;6189621;23;20065;-67
2023/09/20 07:46:42;;;;;;;6.25;2.22;;;17.60;99.90;;;;;;6189876;23;20135;-67
2023/09/20 07:49:13;;;;;;;10.10;2.97;;;17.70;99.90;;;;;;6191185;23;20021;-67
2023/09/20 07:51:39;;;;;;;6.65;2.58;;;17.70;99.90;;;;;;6188328;23;20084;-67
2023/09/20 07:54:09;;;;;;;6.43;2.28;;;17.80;99.90;;;;;;6164758;23;20032;-66
2023/09/20 07:56:39;;;;;;;6.07;2.30;;;17.80;99.90;;;;;;6161969;23;20048;-67
2023/09/20 07:59:05;;;;;;;7.30;2.60;;;17.90;99.90;;;;;;6190080;23;20031;-66
2023/09/20 08:01:32;;;;;;;7.05;2.70;;;18.00;99.90;;;;;;6189933;23;20020;-67
2023/09/20 08:03:58;;;;;;;5.68;2.25;;;18.00;99.90;;;;;;6190389;23;20447;-67
2023/09/20 08:06:35;;;;;;;8.18;2.60;;;18.00;99.90;;;;;;6163940;23;20141;-66
2023/09/20 08:09:05;;;;;;;5.15;3.05;;;18.10;99.90;;;;;;6162516;23;20130;-67
2023/09/20 08:11:32;;;;;;;6.05;2.35;;;18.10;99.90;;;;;;6191488;23;20029;-67
2023/09/20 08:14:00;;;;;;;8.68;2.80;;;18.10;99.90;;;;;;6163005;23;20030;-66
2023/09/20 08:16:32;;;;;;;8.63;2.60;;;18.10;99.90;;;;;;6164138;23;20040;-66
2023/09/20 08:19:04;;;;;;;5.90;2.30;;;18.20;99.90;;;;;;6190706;23;20060;-67
2023/09/20 08:21:34;;;;;;;5.97;2.40;;;18.20;99.90;;;;;;6189351;23;20021;-68
2023/09/20 09:00:24;;;;;;;5.75;2.05;;;18.30;99.90;;;;;;6188677;23;20021;-67
2023/09/20 09:02:57;;;;;;;7.63;2.33;;;18.30;99.90;;;;;;6163485;23;20032;-65
2023/09/20 09:05:27;;;;;;;6.88;2.30;;;18.30;99.90;;;;;;6188278;23;20067;-66
2023/09/20 09:07:54;;;;;;;4.38;2.03;;;18.40;99.90;;;;;;6189798;23;20040;-68
2023/09/20 09:10:20;;;;;;;6.45;1.92;;;18.40;99.90;;;;;;6189464;23;20028;-71
2023/09/20 09:12:48;;;;;;;6.00;2.72;;;18.40;99.90;;;;;;6161733;23;20071;-70
2023/09/20 09:15:16;;;;;;;4.43;2.13;;;18.40;99.90;;;;;;6189505;23;20036;-70
2023/09/20 09:17:50;;;;;;;7.47;2.03;;;18.40;99.90;;;;;;6188201;23;20656;-70
2023/09/20 09:20:21;;;;;;;3.53;2.05;;;18.40;99.90;;;;;;6189968;23;20029;-70
2023/09/20 09:22:47;;;;;;;3.90;2.05;;;18.50;99.90;;;;;;6162078;23;20339;-70
2023/09/20 09:25:18;;;;;;;5.68;2.50;;;18.50;99.90;;;;;;6188981;23;20025;-70
2023/09/20 09:27:44;;;;;;;2.75;1.75;;;18.50;99.90;;;;;;6162462;23;20021;-70
2023/09/20 09:30:14;;;;;;;4.07;1.88;;;18.50;99.90;;;;;;6188504;23;20103;-70
2023/09/20 09:32:47;;;;;;;4.20;2.00;;;18.50;99.90;;;;;;6189959;23;20056;-67
2023/09/20 09:35:15;;;;;;;3.65;1.80;;;18.50;99.90;;;;;;6160716;23;20031;-68
2023/09/20 09:37:43;;;;;;;5.50;2.20;;;18.50;99.90;;;;;;6188217;23;20142;-67
2023/09/20 09:40:09;;;;;;;5.80;1.88;;;18.60;99.90;;;;;;6186760;23;20017;-66
2023/09/20 09:42:36;;;;;;;8.15;2.78;;;18.50;99.90;;;;;;6188315;23;20024;-67
2023/09/20 09:45:02;;;;;;;3.15;1.92;;;18.50;99.90;;;;;;6189555;23;20028;-69
2023/09/20 09:47:30;;;;;;;7.03;2.47;;;18.50;99.90;;;;;;6187887;23;20089;-69
2023/09/20 09:49:59;;;;;;;2.50;1.65;;;18.60;99.90;;;;;;6163504;23;20499;-68
2023/09/20 09:52:27;;;;;;;8.02;2.38;;;18.60;99.90;;;;;;6161214;23;20032;-68
2023/09/20 09:54:54;;;;;;;5.80;1.75;;;18.60;99.90;;;;;;6189474;23;20025;-68
2023/09/20 09:57:20;;;;;;;4.10;1.70;;;18.60;99.90;;;;;;6188258;23;20060;-68
2023/09/20 09:59:50;;;;;;;3.90;1.92;;;18.60;99.90;;;;;;6188366;23;20032;-68
2023/09/20 10:02:17;;;;;;;2.70;1.73;;;18.60;99.90;;;;;;6189214;23;20028;-68
2023/09/20 10:05:00;;;;;;;4.90;2.10;;;18.60;99.90;;;;;;6136527;23;20029;-68
2023/09/20 10:07:39;;;;;;;7.90;1.98;;;18.50;99.90;;;;;;6188785;23;20498;-68
2023/09/20 10:10:13;;;;;;;4.18;1.42;;;18.60;99.90;;;;;;6188648;23;20025;-68
2023/09/20 10:12:40;;;;;;;6.18;1.85;;;18.60;99.90;;;;;;6161717;23;20029;-68
2023/09/20 10:15:07;;;;;;;4.20;2.45;;;18.60;99.90;;;;;;6162332;23;20028;-68
2023/09/20 10:17:34;;;;;;;4.20;1.92;;;18.60;99.90;;;;;;6161550;23;20021;-69
2023/09/20 10:20:04;;;;;;;5.80;1.95;;;18.60;99.90;;;;;;6189716;23;20029;-67
2023/09/20 10:22:31;;;;;;;4.68;1.80;;;18.60;99.90;;;;;;6187797;23;20067;-67
2023/09/20 10:25:01;;;;;;;2.95;1.85;;;18.70;99.90;;;;;;6162877;23;20366;-71
2023/09/20 10:27:30;;;;;;;5.35;2.13;;;18.70;99.90;;;;;;6161361;23;20044;-78
2023/09/20 10:30:09;;;;;;;3.17;1.58;;;18.70;99.90;;;;;;6159836;23;20025;-73
2023/09/20 10:32:38;;;;;;;6.07;2.22;;;18.80;99.90;;;;;;6161276;23;20081;-69
2023/09/20 10:35:33;;;;;;;5.20;1.90;;;18.80;99.90;;;;;;6159309;23;20033;-70
2023/09/20 10:38:04;;;;;;;5.95;2.25;;;18.80;99.90;;;;;;6187371;23;20541;-69
2023/09/20 10:40:48;;;;;;;3.88;1.90;;;18.80;99.90;;;;;;6160741;23;20104;-69
2023/09/20 10:43:36;;;;;;;6.32;2.38;;;18.80;99.90;;;;;;6186263;23;20051;-69
2023/09/20 10:46:10;;;;;;;7.03;2.33;;;18.80;99.90;;;;;;6161412;23;20773;-70
2023/09/20 10:48:41;;;;;;;8.25;2.47;;;18.80;99.90;;;;;;6160462;23;20085;-70
2023/09/20 10:51:07;;;;;;;6.60;2.03;;;18.90;99.90;;;;;;6159815;23;20069;-70
2023/09/20 10:53:44;;;;;;;4.07;2.28;;;18.90;99.90;;;;;;6160229;23;20032;-70
2023/09/20 10:56:31;;;;;;;3.38;2.33;;;18.90;99.90;;;;;;6158561;23;20422;-70
2023/09/20 10:58:59;;;;;;;3.97;1.90;;;18.90;99.90;;;;;;6160821;23;20025;-70
2023/09/20 11:01:25;;;;;;;4.72;1.95;;;18.90;99.90;;;;;;6159742;23;20032;-69
2023/09/20 11:03:53;;;;;;;4.18;1.80;;;18.90;99.90;;;;;;6187046;23;20036;-70
2023/09/20 11:06:21;;;;;;;5.38;2.13;;;19.00;99.90;;;;;;6160850;23;20076;-69
2023/09/20 11:08:47;;;;;;;7.85;2.22;;;19.10;99.90;;;;;;6159705;23;20025;-70
2023/09/20 11:11:15;;;;;;;5.50;2.20;;;19.20;99.90;;;;;;6188478;23;20028;-69
2023/09/20 11:13:46;;;;;;;4.25;1.88;;;19.20;99.90;;;;;;6158380;23;20945;-70
2023/09/20 11:16:13;;;;;;;3.78;1.98;;;19.30;99.90;;;;;;6160832;23;20029;-70
2023/09/20 11:18:41;;;;;;;4.18;2.17;;;19.40;99.90;;;;;;6186561;23;20351;-69
2023/09/20 11:21:07;;;;;;;7.13;2.08;;;19.50;99.90;;;;;;6159806;23;20056;-71
2023/09/20 11:23:34;;;;;;;11.57;2.33;;;19.60;99.90;;;;;;6160419;23;20052;-71
2023/09/20 11:25:59;;;;;;;4.75;2.05;;;19.50;99.90;;;;;;6159153;23;20036;-69
2023/09/20 11:28:27;;;;;;;3.88;2.33;;;19.50;99.90;;;;;;6137514;23;20033;-70
2023/09/20 11:30:53;;;;;;;2.88;2.08;;;19.50;99.90;;;;;;6187029;23;20096;-71
2023/09/20 11:33:28;;;;;;;5.35;1.70;;;19.50;99.90;;;;;;6162002;23;20438;-70
2023/09/20 11:35:55;;;;;;;6.65;2.08;;;19.50;99.90;;;;;;6188173;23;20025;-70
2023/09/20 11:38:22;;;;;;;3.38;1.83;;;19.50;99.90;;;;;;6187754;23;20056;-68
2023/09/20 11:40:48;;;;;;;4.63;2.08;;;19.50;99.90;;;;;;6162966;23;20068;-69
2023/09/20 11:43:20;;;;;;;5.68;1.85;;;19.50;99.90;;;;;;6160924;23;20084;-69
2023/09/20 11:45:47;;;;;;;8.35;2.05;;;19.60;99.90;;;;;;6189529;23;20024;-70
2023/09/20 11:48:13;;;;;;;5.00;2.10;;;19.70;99.90;;;;;;6161095;23;20052;-70
2023/09/20 11:50:45;;;;;;;5.38;2.50;;;19.80;99.90;;;;;;6161804;23;20124;-69
2023/09/20 11:53:15;;;;;;;5.47;2.30;;;19.90;99.90;;;;;;6188606;23;20029;-69
2023/09/20 11:55:45;;;;;;;5.90;2.53;;;19.90;99.90;;;;;;6112230;23;20887;-69
2023/09/20 11:58:10;;;;;;;6.13;2.60;;;20.00;99.90;;;;;;6162214;23;20073;-69
2023/09/20 12:00:39;;;;;;;7.28;2.40;;;20.10;99.90;;;;;;6187259;23;20021;-70
2023/09/20 12:03:05;;;;;;;7.05;2.00;;;20.00;99.90;;;;;;6188707;23;20025;-71
2023/09/20 12:05:33;;;;;;;4.07;2.50;;;20.10;99.90;;;;;;6161350;23;20067;-70
2023/09/20 12:08:00;;;;;;;7.40;2.33;;;20.10;99.90;;;;;;6158534;23;20110;-70
2023/09/20 12:10:28;;;;;;;4.90;2.47;;;20.10;99.90;;;;;;6189547;23;20056;-70
2023/09/20 12:12:54;;;;;;;4.70;2.63;;;20.20;99.90;;;;;;6160751;23;20072;-71
2023/09/20 12:15:23;;;;;;;4.38;2.47;;;20.20;99.90;;;;;;6162406;23;20021;-70
2023/09/20 12:17:55;;;;;;;6.07;3.10;;;20.20;99.90;;;;;;6161176;23;20025;-70
2023/09/20 12:20:24;;;;;;;7.00;2.40;;;20.20;99.90;;;;;;6163127;23;20069;-69
2023/09/20 12:22:50;;;;;;;6.25;2.42;;;20.40;99.90;;;;;;6136574;23;20024;-70
2023/09/20 12:25:17;;;;;;;4.68;2.63;;;20.40;99.90;;;;;;6161781;23;20104;-70
2023/09/20 12:27:45;;;;;;;7.57;2.50;;;20.40;99.90;;;;;;6189048;23;20065;-70
2023/09/20 12:30:15;;;;;;;3.80;2.40;;;20.50;99.90;;;;;;6136086;23;20025;-81
2023/09/20 12:32:44;;;;;;;5.63;2.20;;;20.50;99.90;;;;;;6161700;23;20021;-85
2023/09/20 12:35:10;;;;;;;7.68;2.35;;;20.60;99.90;;;;;;6135054;23;20036;-85
2023/09/20 12:37:37;;;;;;;8.90;2.53;;;20.60;99.90;;;;;;6135293;23;20036;-71
2023/09/20 12:40:10;;;;;;;4.05;2.15;;;20.60;99.90;;;;;;6160296;23;20073;-72
2023/09/20 12:42:37;;;;;;;5.80;2.75;;;20.60;99.90;;;;;;6135805;23;20063;-67
2023/09/20 12:45:07;;;;;;;3.83;2.17;;;20.60;99.90;;;;;;6160957;23;20021;-68
2023/09/20 12:47:34;;;;;;;4.05;1.83;;;20.60;99.90;;;;;;6159182;23;20021;-67
2023/09/20 12:50:00;;;;;;;5.32;2.20;;;20.70;99.90;;;;;;6161732;23;20027;-67
2023/09/20 12:52:27;;;;;;;5.93;2.00;;;20.70;99.90;;;;;;6185983;23;20025;-69
2023/09/20 12:54:54;;;;;;;4.78;2.05;;;20.80;99.90;;;;;;6187439;23;20028;-68
2023/09/20 12:57:22;;;;;;;8.32;2.30;;;20.90;99.90;;;;;;6186105;23;20029;-78
2023/09/20 12:59:48;;;;;;;4.65;1.88;;;20.90;99.90;;;;;;6158764;23;20017;-71
2023/09/20 13:02:15;;;;;;;5.40;2.22;;;21.00;99.90;;;;;;6186943;23;20088;-71
2023/09/20 13:04:42;;;;;;;2.78;2.25;;;21.00;99.90;;;;;;6185535;23;20025;-71
2023/09/20 13:07:08;;;;;;;5.13;2.10;;;21.00;99.90;;;;;;6188358;23;20053;-70
2023/09/20 13:09:34;;;;;;;5.40;1.77;;;21.00;99.90;;;;;;6159227;23;20056;-69
2023/09/20 13:12:01;;;;;;;2.80;1.85;;;21.10;99.90;;;;;;6161334;23;20032;-69
2023/09/20 13:14:30;;;;;;;3.78;1.90;;;21.10;99.90;;;;;;6161104;23;20020;-69
2023/09/20 13:16:56;;;;;;;4.30;1.83;;;21.20;99.90;;;;;;6160226;23;20151;-70
2023/09/20 13:19:22;;;;;;;3.53;1.92;;;21.30;99.90;;;;;;6136447;23;20428;-70
2023/09/20 13:21:48;;;;;;;3.20;1.60;;;21.30;99.90;;;;;;6158049;23;20029;-70
2023/09/20 13:24:13;;;;;;;5.20;1.88;;;21.20;99.90;;;;;;6161274;23;20025;-70
2023/09/20 13:26:40;;;;;;;4.75;2.00;;;21.20;99.90;;;;;;6159742;23;20031;-77
2023/09/20 13:29:06;;;;;;;3.80;1.88;;;21.20;99.90;;;;;;6137261;23;20025;-76